Time;durP1;ratioP1;P1;durP2;ratioP2;P2;SDS_P1;SDS_P2;PMS_P1;PMS_P2;Temp;Humidity;BMP_temperature;BMP_pressure;BME280_temperature;BME280_humidity;BME280_pressure;Samples;Min_cycle;Max_cycle;Signal;HPM_P1;HPM_P2
2023/11/16 00:01:30;;;;;;;10.57;4.45;;;;;;;7.93;100.00;100874.13;4902500;29;20513;-78
2023/11/16 00:03:58;;;;;;;11.15;4.50;;;;;;;7.93;100.00;100866.13;4872412;29;20058;-76
2023/11/16 00:06:24;;;;;;;15.13;4.53;;;;;;;7.96;100.00;100872.81;4863696;29;20206;-76
2023/11/16 00:08:50;;;;;;;9.20;4.28;;;;;;;7.97;100.00;100868.28;4899662;29;20036;-81
2023/11/16 00:11:17;;;;;;;12.55;4.47;;;;;;;7.98;100.00;100862.69;4862065;29;20067;-76
2023/11/16 00:13:44;;;;;;;7.57;4.30;;;;;;;7.98;100.00;100859.22;4863031;29;20069;-76
2023/11/16 00:16:16;;;;;;;15.90;4.53;;;;;;;7.99;100.00;100866.19;4871075;29;20072;-77
2023/11/16 00:18:43;;;;;;;9.85;4.40;;;;;;;7.99;100.00;100866.97;4945827;23;20119;-77
2023/11/16 00:21:09;;;;;;;11.25;4.20;;;;;;;7.99;100.00;100860.84;4891434;29;20024;-77
2023/11/16 00:23:36;;;;;;;10.65;3.80;;;;;;;7.97;100.00;100852.28;4898181;29;20020;-78
2023/11/16 00:26:02;;;;;;;12.80;3.30;;;;;;;8.00;100.00;100849.16;4888277;29;20433;-79
2023/11/16 00:28:28;;;;;;;;;;;;;;;8.01;100.00;100842.75;4871939;29;20130;-78
2023/11/16 00:30:54;;;;;;;8.20;2.90;;;;;;;8.01;100.00;100832.88;4882267;29;19923;-79
2023/11/16 00:33:21;;;;;;;7.95;3.30;;;;;;;8.04;100.00;100836.91;4898025;29;20028;-78
2023/11/16 00:35:47;;;;;;;;;;;;;;;8.03;100.00;100840.63;4902090;29;20521;-79
2023/11/16 00:38:15;;;;;;;7.15;2.50;;;;;;;8.00;100.00;100830.47;4886728;29;19918;-79
2023/11/16 00:40:42;;;;;;;8.10;2.22;;;;;;;7.98;100.00;100805.91;4879693;29;20029;-80
2023/11/16 00:43:09;;;;;;;8.77;3.15;;;;;;;8.00;100.00;100819.81;4886835;29;20115;-78
2023/11/16 00:45:37;;;;;;;8.65;3.22;;;;;;;7.98;100.00;100813.91;4886820;29;20039;-80
2023/11/16 00:48:03;;;;;;;7.78;2.95;;;;;;;7.99;100.00;100816.31;4893746;29;20047;-78
2023/11/16 00:50:30;;;;;;;9.35;3.05;;;;;;;8.01;100.00;100818.75;4893480;29;20040;-79
2023/11/16 00:52:57;;;;;;;5.63;3.08;;;;;;;8.04;100.00;100816.38;4889441;29;20119;-79
2023/11/16 00:55:23;;;;;;;9.95;3.10;;;;;;;8.04;100.00;100813.69;4903250;29;20044;-80
2023/11/16 00:57:51;;;;;;;8.05;3.42;;;;;;;8.05;100.00;100817.16;4897514;29;20036;-79
2023/11/16 01:00:17;;;;;;;8.13;3.40;;;;;;;8.01;100.00;100802.75;4884335;29;20066;-79
2023/11/16 01:02:43;;;;;;;7.72;3.75;;;;;;;8.03;100.00;100813.97;4880504;29;20422;-79
2023/11/16 01:05:10;;;;;;;9.98;3.67;;;;;;;8.02;100.00;100813.16;4896515;29;20133;-80
2023/11/16 01:07:38;;;;;;;;;;;;;;;8.06;100.00;100818.78;4888018;29;20039;-78
2023/11/16 01:10:06;;;;;;;12.68;3.97;;;;;;;8.01;100.00;100810.75;4880544;29;20408;-79
2023/11/16 01:12:32;;;;;;;10.82;3.58;;;;;;;8.05;100.00;100806.50;4902244;29;20516;-79
2023/11/16 01:14:59;;;;;;;12.43;3.90;;;;;;;8.07;100.00;100809.75;4880839;29;20167;-79
2023/11/16 01:17:31;;;;;;;13.93;3.58;;;;;;;8.04;100.00;100804.91;4904334;29;20409;-79
2023/11/16 01:20:00;;;;;;;8.95;3.08;;;;;;;8.07;100.00;100793.75;4898337;29;20031;-80
2023/11/16 01:22:29;;;;;;;9.65;3.92;;;;;;;8.08;100.00;100793.50;4889306;29;20040;-78
2023/11/16 01:24:55;;;;;;;8.02;3.05;;;;;;;8.14;100.00;100799.69;4880687;29;20038;-78
2023/11/16 01:27:26;;;;;;;12.40;3.40;;;;;;;8.13;100.00;100795.41;4900920;29;20537;-79
2023/11/16 01:29:53;;;;;;;7.40;2.88;;;;;;;8.12;100.00;100796.44;4888328;29;20044;-79
2023/11/16 01:32:19;;;;;;;9.10;3.67;;;;;;;8.10;100.00;100785.22;4869080;29;20055;-79
2023/11/16 01:34:47;;;;;;;;;;;;;;;8.09;100.00;100788.94;4887304;29;20550;-78
2023/11/16 01:37:13;;;;;;;7.57;3.38;;;;;;;8.02;100.00;100778.47;4899084;29;19922;-80
2023/11/16 01:39:39;;;;;;;7.60;3.13;;;;;;;8.06;100.00;100781.44;4885990;29;20036;-79
2023/11/16 01:42:10;;;;;;;7.15;3.22;;;;;;;8.03;100.00;100781.94;4901341;29;20044;-80
2023/11/16 01:44:36;;;;;;;9.50;2.90;;;;;;;8.03;100.00;100776.63;4877356;29;20028;-80
2023/11/16 01:47:06;;;;;;;8.73;2.83;;;;;;;8.05;100.00;100777.16;4875411;29;20032;-76
2023/11/16 01:49:31;;;;;;;7.47;2.60;;;;;;;8.05;100.00;100791.31;4887511;29;20477;-77
2023/11/16 01:51:58;;;;;;;11.55;3.35;;;;;;;8.07;100.00;100775.88;4861851;29;20040;-77
2023/11/16 01:54:24;;;;;;;8.80;3.40;;;;;;;8.09;100.00;100772.94;4894119;29;20119;-78
2023/11/16 01:56:50;;;;;;;12.05;3.40;;;;;;;8.07;100.00;100767.06;4877624;29;20066;-78
2023/11/16 01:59:17;;;;;;;7.10;3.58;;;;;;;8.05;100.00;100774.50;4859685;29;20035;-77
2023/11/16 02:01:43;;;;;;;6.93;2.78;;;;;;;8.05;100.00;100772.63;4893646;29;20048;-78
2023/11/16 02:04:09;;;;;;;8.20;2.72;;;;;;;8.06;100.00;100768.09;4892403;29;20108;-78
2023/11/16 02:06:35;;;;;;;;;;;;;;;8.08;100.00;100779.34;4897467;29;20036;-78
2023/11/16 02:09:01;;;;;;;4.50;2.50;;;;;;;8.07;100.00;100767.88;4861519;29;19941;-77
2023/11/16 02:11:28;;;;;;;13.10;3.20;;;;;;;8.06;100.00;100766.28;4893505;29;20120;-78
2023/11/16 02:13:54;;;;;;;9.05;2.53;;;;;;;8.08;100.00;100768.69;4889916;29;20032;-77
2023/11/16 02:16:20;;;;;;;9.68;3.00;;;;;;;8.05;100.00;100771.81;4874130;29;20059;-77
2023/11/16 02:18:47;;;;;;;6.28;2.95;;;;;;;8.02;100.00;100761.69;4893534;29;20028;-78
2023/11/16 02:21:15;;;;;;;7.85;2.92;;;;;;;8.00;100.00;100764.59;4877976;29;20040;-78
2023/11/16 02:23:42;;;;;;;9.65;3.00;;;;;;;7.95;100.00;100756.53;4865740;29;20095;-77
2023/11/16 02:26:10;;;;;;;10.45;2.70;;;;;;;7.96;100.00;100765.34;4879412;29;20530;-79
2023/11/16 02:28:37;;;;;;;7.90;2.53;;;;;;;7.98;100.00;100758.69;4884247;29;20162;-78
2023/11/16 02:31:02;;;;;;;10.88;2.38;;;;;;;7.97;100.00;100753.63;4894644;29;20502;-78
2023/11/16 02:33:28;;;;;;;8.10;2.60;;;;;;;7.99;100.00;100759.50;4887703;29;20048;-77
2023/11/16 02:35:54;;;;;;;5.43;2.40;;;;;;;7.99;100.00;100754.16;4878911;29;20411;-78
2023/11/16 02:38:20;;;;;;;6.93;2.65;;;;;;;7.96;100.00;100744.00;4901736;29;20083;-76
2023/11/16 02:40:51;;;;;;;;;;;;;;;7.99;100.00;100759.50;4875463;29;20043;-76
2023/11/16 02:43:18;;;;;;;9.30;2.70;;;;;;;7.98;100.00;100750.69;4871354;29;20661;-79
2023/11/16 02:45:44;;;;;;;9.05;2.17;;;;;;;7.97;100.00;100743.75;4862163;29;20046;-77
2023/11/16 02:48:10;;;;;;;8.38;2.03;;;;;;;7.97;100.00;100734.94;4865081;29;20421;-77
2023/11/16 02:50:35;;;;;;;9.10;1.77;;;;;;;7.98;100.00;100742.69;4874142;29;20487;-77
2023/11/16 02:53:03;;;;;;;7.40;1.80;;;;;;;7.99;100.00;100748.81;4860082;29;20042;-80
2023/11/16 02:55:29;;;;;;;10.15;1.90;;;;;;;7.98;100.00;100752.56;4876167;29;20044;-77
2023/11/16 02:57:55;;;;;;;7.60;1.92;;;;;;;7.97;100.00;100745.63;4888796;29;20135;-77
2023/11/16 03:00:22;;;;;;;7.25;2.70;;;;;;;7.96;100.00;100749.34;4870297;29;20474;-77
2023/11/16 03:02:51;;;;;;;6.35;2.05;;;;;;;7.92;100.00;100755.19;4877712;29;20094;-77
2023/11/16 03:05:20;;;;;;;4.72;2.00;;;;;;;7.91;100.00;100758.09;4874498;29;20589;-78
2023/11/16 03:07:52;;;;;;;7.85;1.67;;;;;;;7.87;100.00;100757.81;4893163;29;20064;-78
2023/11/16 03:10:19;;;;;;;8.05;1.75;;;;;;;7.84;100.00;100770.81;4872451;29;20505;-78
2023/11/16 03:12:45;;;;;;;5.95;1.40;;;;;;;7.81;100.00;100761.47;4878143;29;20041;-78
2023/11/16 03:15:12;;;;;;;8.93;1.42;;;;;;;7.81;100.00;100766.81;4859896;29;20047;-79
2023/11/16 03:17:38;;;;;;;5.68;1.40;;;;;;;7.81;100.00;100772.13;4875932;29;20044;-79
2023/11/16 03:20:05;;;;;;;6.15;1.38;;;;;;;7.79;100.00;100773.41;4873062;29;20040;-80
2023/11/16 03:22:31;;;;;;;8.05;1.30;;;;;;;7.77;100.00;100773.69;4859132;29;20136;-79
2023/11/16 03:24:59;;;;;;;5.43;1.33;;;;;;;7.77;100.00;100771.00;4878295;29;20036;-78
2023/11/16 03:27:25;;;;;;;6.72;1.42;;;;;;;7.73;100.00;100772.59;4875285;29;20054;-79
2023/11/16 03:29:51;;;;;;;6.70;1.30;;;;;;;7.72;100.00;100781.59;4865203;29;20044;-79
2023/11/16 03:32:18;;;;;;;4.20;1.13;;;;;;;7.70;100.00;100782.94;4859140;29;20091;-77
2023/11/16 03:34:44;;;;;;;3.30;0.95;;;;;;;7.70;100.00;100781.06;4897726;29;20486;-78
2023/11/16 03:37:10;;;;;;;3.65;1.05;;;;;;;7.66;100.00;100778.09;4885830;29;20036;-79
2023/11/16 03:39:36;;;;;;;;;;;;;;;7.70;100.00;100798.91;4882726;29;20050;-78
2023/11/16 03:42:02;;;;;;;8.10;1.00;;;;;;;7.68;100.00;100801.03;4882624;29;19919;-77
2023/11/16 03:44:29;;;;;;;4.05;1.52;;;;;;;7.61;100.00;100795.91;4868978;29;20176;-77
2023/11/16 03:46:55;;;;;;;;;;;;;;;7.59;100.00;100798.00;4888899;29;20035;-78
2023/11/16 03:49:22;;;;;;;3.45;1.05;;;;;;;7.53;100.00;100807.00;4878610;29;20017;-77
2023/11/16 03:51:51;;;;;;;5.57;1.00;;;;;;;7.45;100.00;100800.25;4877896;29;20028;-77
2023/11/16 03:54:17;;;;;;;3.40;1.10;;;;;;;7.38;100.00;100805.75;4852906;29;20422;-78
2023/11/16 03:56:44;;;;;;;4.32;1.15;;;;;;;7.36;100.00;100820.34;4881789;29;20525;-79
2023/11/16 03:59:12;;;;;;;4.72;1.10;;;;;;;7.25;100.00;100814.09;4871438;29;20044;-77
2023/11/16 04:01:38;;;;;;;3.53;1.10;;;;;;;7.17;100.00;100827.81;4914405;29;20028;-77
2023/11/16 04:04:10;;;;;;;1.52;0.70;;;;;;;7.07;100.00;100817.81;4899308;29;20044;-78
2023/11/16 04:06:37;;;;;;;3.00;1.13;;;;;;;7.05;100.00;100841.25;4887603;29;20044;-78
2023/11/16 04:09:05;;;;;;;3.25;0.88;;;;;;;6.96;100.00;100826.69;4895050;29;20028;-79
2023/11/16 04:11:32;;;;;;;2.35;1.00;;;;;;;6.84;100.00;100831.31;4909579;29;20773;-78
2023/11/16 04:13:58;;;;;;;2.95;0.82;;;;;;;6.81;100.00;100834.47;4883533;29;20039;-78
2023/11/16 04:16:24;;;;;;;2.75;1.15;;;;;;;6.81;100.00;100853.91;4883227;29;20040;-78
2023/11/16 04:18:51;;;;;;;3.00;0.90;;;;;;;6.73;100.00;100848.97;4882207;29;20063;-77
2023/11/16 04:21:19;;;;;;;2.75;0.60;;;;;;;6.67;100.00;100843.81;4864429;29;20032;-78
2023/11/16 04:23:55;;;;;;;2.80;0.85;;;;;;;6.54;100.00;100844.94;4873565;29;20040;-78
2023/11/16 04:26:24;;;;;;;2.97;0.70;;;;;;;6.48;100.00;100837.91;4881008;29;20063;-80
2023/11/16 04:28:51;;;;;;;4.20;0.80;;;;;;;6.45;100.00;100841.06;4897082;29;20036;-78
2023/11/16 04:31:18;;;;;;;2.65;0.82;;;;;;;6.39;100.00;100848.13;4865399;29;20044;-78
2023/11/16 04:33:45;;;;;;;3.10;0.90;;;;;;;6.32;100.00;100841.34;4877370;29;20040;-76
2023/11/16 04:36:28;;;;;;;4.53;0.65;;;;;;;6.31;100.00;100863.69;4877045;29;20699;-77
2023/11/16 04:38:55;;;;;;;2.40;1.30;;;;;;;6.26;100.00;100862.53;4872235;29;20770;-77
2023/11/16 04:41:25;;;;;;;2.45;0.90;;;;;;;6.21;100.00;100877.56;4878361;29;20078;-77
2023/11/16 04:43:55;;;;;;;1.80;0.90;;;;;;;6.17;100.00;100871.94;4879288;29;20035;-78
2023/11/16 04:46:21;;;;;;;4.72;1.00;;;;;;;6.15;100.00;100884.63;4874724;29;20040;-76
2023/11/16 04:48:46;;;;;;;1.77;1.05;;;;;;;6.08;100.00;100891.94;4878174;29;20042;-80
2023/11/16 04:51:17;;;;;;;1.90;0.90;;;;;;;6.06;100.00;100887.91;4894562;29;20040;-77
2023/11/16 04:53:44;;;;;;;1.15;0.68;;;;;;;6.03;100.00;100886.56;4890105;29;20048;-78
2023/11/16 04:56:10;;;;;;;2.08;0.80;;;;;;;5.97;100.00;100898.13;4879514;29;20044;-77
2023/11/16 04:58:35;;;;;;;2.63;0.90;;;;;;;5.92;100.00;100890.84;4875305;29;20256;-78
2023/11/16 05:01:03;;;;;;;2.15;0.50;;;;;;;5.92;100.00;100890.84;4881396;29;20068;-78
2023/11/16 05:03:29;;;;;;;;;;;;;;;5.87;100.00;100903.19;4872341;29;20040;-78
2023/11/16 05:05:56;;;;;;;1.63;0.65;;;;;;;5.85;100.00;100905.28;4878742;29;19919;-78
2023/11/16 05:08:21;;;;;;;1.23;0.60;;;;;;;5.74;100.00;100897.06;4891263;29;20041;-78
2023/11/16 05:10:47;;;;;;;1.30;0.70;;;;;;;5.75;100.00;100908.50;4894716;29;20086;-78
2023/11/16 05:13:13;;;;;;;2.72;0.68;;;;;;;5.67;100.00;100899.06;4862331;29;20782;-78
2023/11/16 05:15:41;;;;;;;2.45;1.00;;;;;;;5.69;100.00;100918.25;4879108;29;20043;-77
2023/11/16 05:18:07;;;;;;;3.20;0.70;;;;;;;5.67;100.00;100915.00;4898213;29;20036;-77
2023/11/16 05:20:33;;;;;;;2.67;0.95;;;;;;;5.68;100.00;100927.25;4877884;29;20100;-78
2023/11/16 05:22:58;;;;;;;1.75;0.70;;;;;;;5.73;100.00;100934.53;4911303;29;20114;-78
2023/11/16 05:25:27;;;;;;;3.15;0.80;;;;;;;5.68;100.00;100932.56;4909499;29;20040;-80
2023/11/16 05:27:54;;;;;;;3.33;0.60;;;;;;;5.69;100.00;100939.50;4879151;29;20032;-78
2023/11/16 05:30:19;;;;;;;1.23;0.90;;;;;;;5.66;100.00;100931.19;4880646;29;20043;-79
2023/11/16 05:32:45;;;;;;;2.45;0.60;;;;;;;5.64;100.00;100935.94;4868953;29;20425;-78
2023/11/16 05:35:12;;;;;;;1.10;0.60;;;;;;;5.56;100.00;100923.00;4902334;29;20035;-78
2023/11/16 05:37:38;;;;;;;1.67;1.02;;;;;;;5.55;100.00;100932.78;4883086;29;20046;-77
2023/11/16 05:40:05;;;;;;;1.40;0.70;;;;;;;5.56;100.00;100937.09;4895879;29;20036;-78
2023/11/16 05:42:31;;;;;;;1.80;1.08;;;;;;;5.51;100.00;100941.47;4886909;29;20064;-78
2023/11/16 05:44:57;;;;;;;1.63;0.90;;;;;;;5.43;100.00;100946.09;4877011;29;20130;-77
2023/11/16 05:47:24;;;;;;;1.30;0.63;;;;;;;5.46;100.00;100942.16;4875287;29;20549;-78
2023/11/16 05:49:50;;;;;;;2.08;0.80;;;;;;;5.51;100.00;100960.88;4873871;29;20036;-78
2023/11/16 05:52:15;;;;;;;2.67;0.98;;;;;;;5.46;100.00;100955.44;4891620;29;20589;-78
2023/11/16 05:54:42;;;;;;;1.60;1.20;;;;;;;5.43;100.00;100947.94;4905830;29;20817;-77
2023/11/16 05:57:08;;;;;;;1.83;0.90;;;;;;;5.44;100.00;100962.84;4871265;29;20074;-78
2023/11/16 05:59:33;;;;;;;3.03;1.58;;;;;;;5.46;100.00;100963.41;4871492;29;20104;-78
2023/11/16 06:01:59;;;;;;;1.60;1.02;;;;;;;5.40;100.00;100961.66;4862916;29;20553;-77
2023/11/16 06:04:24;;;;;;;3.35;1.10;;;;;;;5.43;100.00;100977.16;4858925;29;20044;-78
2023/11/16 06:06:51;;;;;;;2.42;1.17;;;;;;;5.44;100.00;100984.09;4875136;29;20073;-78
2023/11/16 06:09:17;;;;;;;6.63;1.55;;;;;;;5.43;100.00;100983.28;4840287;29;20057;-77
2023/11/16 06:11:43;;;;;;;3.28;1.80;;;;;;;5.36;100.00;100987.06;4876304;29;20092;-77
2023/11/16 06:14:10;;;;;;;2.78;1.58;;;;;;;5.34;100.00;100979.31;4907349;29;20126;-77
2023/11/16 06:16:43;;;;;;;3.08;1.70;;;;;;;5.33;100.00;100992.81;4888168;29;20512;-78
2023/11/16 06:19:13;;;;;;;2.47;1.50;;;;;;;5.28;100.00;100979.41;4888110;29;20540;-78
2023/11/16 06:21:40;;;;;;;2.95;1.40;;;;;;;5.13;100.00;100977.19;4877950;29;20402;-78
2023/11/16 06:24:07;;;;;;;5.30;1.50;;;;;;;5.19;100.00;100990.38;4880488;29;20046;-78
2023/11/16 06:26:34;;;;;;;4.20;1.80;;;;;;;5.11;100.00;101006.63;4865727;29;20040;-77
2023/11/16 06:29:00;;;;;;;3.55;1.73;;;;;;;5.10;100.00;101005.03;4888886;29;20627;-78
2023/11/16 06:31:26;;;;;;;5.05;1.30;;;;;;;5.10;100.00;101005.03;4880538;29;20039;-78
2023/11/16 06:33:52;;;;;;;3.00;1.60;;;;;;;5.05;100.00;101007.53;4865472;29;20123;-78
2023/11/16 06:36:21;;;;;;;4.68;1.73;;;;;;;5.02;100.00;101021.28;4890200;29;20099;-79
2023/11/16 06:38:47;;;;;;;3.25;1.67;;;;;;;5.00;100.00;101025.19;4894961;29;20769;-78
2023/11/16 06:41:16;;;;;;;2.75;1.25;;;;;;;4.92;100.00;101027.13;4865759;29;20047;-77
2023/11/16 06:43:42;;;;;;;3.53;1.80;;;;;;;4.91;100.00;101051.22;4878642;29;20028;-78
2023/11/16 06:46:12;;;;;;;;;;;;;;;4.87;100.00;101042.09;4878522;29;20032;-77
2023/11/16 06:48:38;;;;;;;2.20;1.60;;;;;;;4.86;100.00;101035.16;4880117;29;19923;-77
2023/11/16 06:51:08;;;;;;;2.97;1.58;;;;;;;4.88;100.00;101043.72;4877889;29;20042;-79
2023/11/16 06:53:37;;;;;;;6.90;1.73;;;;;;;4.86;100.00;101056.41;4894447;29;20039;-78
2023/11/16 06:56:06;;;;;;;4.07;1.60;;;;;;;4.79;100.00;101029.13;4880888;29;20123;-81
2023/11/16 06:58:40;;;;;;;6.90;2.00;;;;;;;4.75;100.00;101062.47;4877267;29;20131;-79
2023/11/16 07:01:07;;;;;;;3.85;1.65;;;;;;;4.78;100.00;101080.59;4886441;23;20058;-76
2023/11/16 07:03:32;;;;;;;2.15;1.45;;;;;;;4.69;100.00;101066.81;4901755;29;20032;-77
2023/11/16 07:05:59;;;;;;;3.47;1.60;;;;;;;4.76;100.00;101072.06;4871949;29;20067;-77
2023/11/16 07:08:24;;;;;;;;;;;;;;;4.75;100.00;101065.94;4900479;29;20072;-77
2023/11/16 07:10:50;;;;;;;4.25;1.63;;;;;;;4.77;100.00;101068.34;4914768;29;19970;-77
2023/11/16 07:13:17;;;;;;;2.97;1.55;;;;;;;4.78;100.00;101075.28;4925081;29;20092;-75
2023/11/16 07:15:44;;;;;;;2.50;1.90;;;;;;;4.76;100.00;101078.16;4924235;29;20115;-76
2023/11/16 07:18:10;;;;;;;2.25;1.60;;;;;;;4.72;100.00;101076.16;4897112;29;20043;-77
2023/11/16 07:20:36;;;;;;;3.55;1.85;;;;;;;4.78;100.00;101077.94;4911808;29;20119;-77
2023/11/16 07:23:02;;;;;;;2.83;1.95;;;;;;;4.71;100.00;101079.84;4894855;29;20084;-78
2023/11/16 07:25:28;;;;;;;3.63;1.60;;;;;;;4.73;100.00;101083.09;4910484;29;20051;-77
2023/11/16 07:27:54;;;;;;;2.30;1.35;;;;;;;4.75;100.00;101087.16;4888594;29;20167;-77
2023/11/16 07:30:20;;;;;;;2.90;1.60;;;;;;;4.76;100.00;101087.97;4911450;29;20147;-77
2023/11/16 07:32:51;;;;;;;3.70;1.70;;;;;;;4.77;100.00;101090.41;4889494;29;20365;-77
2023/11/16 07:35:16;;;;;;;2.33;1.42;;;;;;;4.78;100.00;101088.53;4908494;29;20036;-77
2023/11/16 07:37:47;;;;;;;2.42;2.00;;;;;;;4.72;100.00;101092.09;4901988;29;20044;-76
2023/11/16 07:40:15;;;;;;;3.75;1.60;;;;;;;4.76;100.00;101087.97;4909300;29;20047;-75
2023/11/16 07:42:41;;;;;;;4.30;1.60;;;;;;;4.74;100.00;101092.66;4891696;29;20043;-77
2023/11/16 07:45:11;;;;;;;3.65;1.50;;;;;;;4.78;100.00;101101.81;4908173;29;20050;-76
2023/11/16 07:47:41;;;;;;;2.70;1.45;;;;;;;4.74;100.00;101105.94;4915769;29;20442;-76
2023/11/16 07:50:10;;;;;;;2.28;1.30;;;;;;;4.77;100.00;101106.31;4905499;29;20422;-77
2023/11/16 07:52:42;;;;;;;4.57;1.67;;;;;;;4.81;100.00;101106.66;4921669;29;20043;-78
2023/11/16 07:55:28;;;;;;;2.67;1.50;;;;;;;4.88;100.00;101107.44;4890100;29;20075;-77
2023/11/16 07:57:54;;;;;;;4.47;1.65;;;;;;;4.93;100.00;101115.50;4908703;29;20100;-78
2023/11/16 08:00:26;;;;;;;2.75;1.50;;;;;;;4.93;100.00;101115.50;4911053;29;20123;-76
2023/11/16 08:05:41;;;;;;;2.60;1.65;;;;;;;4.85;100.00;101108.66;4906292;29;20176;-76
2023/11/16 08:08:11;;;;;;;2.15;1.40;;;;;;;4.93;100.00;101118.16;4907832;29;20067;-75
2023/11/16 08:10:43;;;;;;;6.82;1.45;;;;;;;4.94;100.00;101122.44;4907550;29;20036;-75
2023/11/16 08:13:10;;;;;;;4.25;1.30;;;;;;;4.96;100.00;101103.66;4873091;29;20082;-75
2023/11/16 08:15:39;;;;;;;2.05;1.20;;;;;;;4.99;100.00;101122.59;4920763;29;20498;-76
2023/11/16 08:18:06;;;;;;;2.78;1.25;;;;;;;4.98;100.00;101115.66;4892961;29;20039;-76
2023/11/16 08:20:32;;;;;;;2.08;1.25;;;;;;;5.04;100.00;101128.03;4882350;29;20376;-77
2023/11/16 08:22:58;;;;;;;4.15;1.30;;;;;;;5.00;100.00;101120.72;4894483;29;20069;-76
2023/11/16 08:25:28;;;;;;;2.03;1.13;;;;;;;5.05;100.00;101112.91;4921072;29;20414;-76
2023/11/16 08:27:55;;;;;;;5.55;1.75;;;;;;;5.08;100.00;101107.16;4890046;29;20044;-76
2023/11/16 08:30:25;;;;;;;2.67;1.35;;;;;;;5.11;100.00;101107.53;4872151;29;20043;-75
2023/11/16 08:32:51;;;;;;;2.65;1.70;;;;;;;5.16;100.00;101130.75;4878599;29;20489;-76
2023/11/16 08:35:18;;;;;;;2.05;1.40;;;;;;;5.23;100.00;101125.38;4907798;29;20040;-76
2023/11/16 08:37:44;;;;;;;2.13;1.40;;;;;;;5.27;100.00;101127.31;4906791;29;20047;-77
2023/11/16 08:40:16;;;;;;;3.30;1.50;;;;;;;5.31;100.00;101133.00;4904849;29;20048;-78
2023/11/16 08:42:42;;;;;;;2.88;1.52;;;;;;;5.32;100.00;101131.97;4874092;29;20056;-76
2023/11/16 08:45:18;;;;;;;2.10;1.38;;;;;;;5.31;100.00;101128.50;4892455;29;20517;-75
2023/11/16 08:47:45;;;;;;;2.90;1.63;;;;;;;5.33;100.00;101130.94;4896694;29;20510;-77
2023/11/16 08:50:12;;;;;;;3.25;1.20;;;;;;;5.35;100.00;101123.53;4901785;29;20553;-77
2023/11/16 08:52:45;;;;;;;1.60;1.15;;;;;;;5.36;100.00;101131.31;4906485;29;20044;-77
2023/11/16 08:55:12;;;;;;;1.98;1.23;;;;;;;5.43;100.00;101133.88;4877986;29;20100;-76
2023/11/16 08:57:43;;;;;;;1.95;0.93;;;;;;;5.46;100.00;101126.25;4875977;29;20148;-77
2023/11/16 09:03:00;;;;;;;2.33;1.42;;;;;;;5.52;100.00;101137.81;4906721;29;19914;-77
2023/11/16 09:05:28;;;;;;;2.50;1.23;;;;;;;5.50;100.00;101142.56;4904971;29;20032;-77
2023/11/16 09:07:55;;;;;;;2.40;1.35;;;;;;;5.55;100.00;101142.66;4902873;29;20097;-77
2023/11/16 09:10:21;;;;;;;2.40;1.10;;;;;;;5.57;100.00;101137.97;4904546;29;20032;-76
2023/11/16 09:12:48;;;;;;;1.98;1.50;;;;;;;5.59;100.00;101141.19;4899257;29;20050;-76
2023/11/16 09:15:15;;;;;;;3.05;1.25;;;;;;;5.65;100.00;101139.47;4889656;29;20039;-77
2023/11/16 09:17:45;;;;;;;2.08;1.17;;;;;;;5.69;100.00;101135.31;4900055;29;20040;-78
2023/11/16 09:20:18;;;;;;;2.40;1.10;;;;;;;5.71;100.00;101133.25;4902180;29;20516;-79
2023/11/16 09:22:50;;;;;;;2.20;1.40;;;;;;;5.75;100.00;101145.03;4903790;29;20134;-77
2023/11/16 09:25:20;;;;;;;1.90;1.27;;;;;;;5.71;100.00;101134.06;4903909;29;20044;-75
2023/11/16 09:27:58;;;;;;;2.88;1.83;;;;;;;5.71;100.00;101125.28;4886139;29;20044;-77
2023/11/16 09:30:26;;;;;;;2.63;1.80;;;;;;;5.73;100.00;101131.16;4907430;29;20040;-75
2023/11/16 09:32:54;;;;;;;3.35;1.75;;;;;;;5.69;100.00;101125.53;4901365;29;20036;-76
2023/11/16 09:35:23;;;;;;;1.60;1.40;;;;;;;5.77;100.00;101131.53;4891128;29;20044;-78
2023/11/16 09:37:51;;;;;;;2.97;1.63;;;;;;;5.80;100.00;101121.25;4869133;29;20040;-76
2023/11/16 09:40:21;;;;;;;3.78;1.83;;;;;;;5.84;100.00;101121.63;4875489;29;20039;-76
2023/11/16 09:42:57;;;;;;;2.90;1.80;;;;;;;5.88;100.00;101117.44;4900852;29;20036;-76
2023/11/16 09:45:27;;;;;;;2.20;1.65;;;;;;;5.91;100.00;101122.34;4917456;29;20036;-76
2023/11/16 09:48:06;;;;;;;3.03;2.10;;;;;;;5.94;100.00;101127.19;4906132;29;20043;-75
2023/11/16 09:50:33;;;;;;;2.67;1.98;;;;;;;5.95;100.00;101131.47;4891375;29;20508;-78
2023/11/16 09:53:00;;;;;;;4.18;2.20;;;;;;;5.90;100.00;101144.63;4874022;29;20506;-75
2023/11/16 09:55:33;;;;;;;2.92;1.92;;;;;;;5.90;100.00;101134.81;4873485;29;20058;-76
2023/11/16 09:58:09;;;;;;;3.53;2.35;;;;;;;5.90;100.00;101147.28;4918654;29;20040;-80
2023/11/16 10:00:36;;;;;;;2.25;1.75;;;;;;;5.85;100.00;101140.00;4870085;29;20057;-78
2023/11/16 10:03:05;;;;;;;2.97;2.03;;;;;;;5.72;100.00;101130.38;4890479;29;20028;-75
2023/11/16 10:05:35;;;;;;;3.60;2.03;;;;;;;5.70;100.00;101148.41;4909848;29;20050;-76
2023/11/16 10:08:14;;;;;;;2.72;1.90;;;;;;;5.66;100.00;101146.41;4888625;29;20047;-76
2023/11/16 10:10:55;;;;;;;2.65;1.65;;;;;;;5.70;100.00;101147.59;4917673;29;20040;-76
2023/11/16 10:13:24;;;;;;;4.30;2.00;;;;;;;5.63;100.00;101155.66;4906837;29;20107;-78
2023/11/16 10:15:52;;;;;;;2.80;1.90;;;;;;;5.63;100.00;101154.84;4908888;29;20040;-77
2023/11/16 10:18:21;;;;;;;3.20;2.08;;;;;;;5.70;100.00;101148.41;4904462;29;20104;-77
2023/11/16 10:20:47;;;;;;;4.72;2.35;;;;;;;5.73;100.00;101150.59;4868688;29;20095;-75
2023/11/16 10:23:13;;;;;;;2.80;1.95;;;;;;;5.70;100.00;101147.59;4889215;29;20410;-75
2023/11/16 10:25:40;;;;;;;2.65;1.70;;;;;;;5.72;100.00;101151.63;4874414;29;20040;-78
2023/11/16 10:28:20;;;;;;;2.30;1.83;;;;;;;5.68;100.00;101150.44;4883824;29;20933;-76
2023/11/16 10:30:53;;;;;;;2.22;1.77;;;;;;;5.74;100.00;101154.06;4876881;29;20040;-75
2023/11/16 10:33:23;;;;;;;2.80;1.55;;;;;;;5.77;100.00;101163.44;4908325;29;20044;-78
2023/11/16 10:35:51;;;;;;;3.53;1.92;;;;;;;5.74;100.00;101152.19;4908889;29;20134;-76
2023/11/16 10:38:21;;;;;;;3.33;2.03;;;;;;;5.77;100.00;101147.50;4906744;29;20042;-76
2023/11/16 10:40:51;;;;;;;2.33;1.73;;;;;;;5.80;100.00;101157.66;4887440;29;20083;-76
2023/11/16 10:43:25;;;;;;;3.67;1.80;;;;;;;5.85;100.00;101166.56;4907545;29;20131;-76
2023/11/16 10:45:53;;;;;;;2.60;1.90;;;;;;;5.77;100.00;101164.25;4904332;29;20091;-76
2023/11/16 10:48:20;;;;;;;2.50;1.50;;;;;;;5.80;100.00;101155.00;4889423;29;20063;-75
2023/11/16 10:50:47;;;;;;;2.80;1.60;;;;;;;5.78;100.00;101170.38;4885680;29;20099;-76
2023/11/16 10:53:22;;;;;;;3.58;1.50;;;;;;;5.82;100.00;101160.88;4884782;29;20039;-75
2023/11/16 10:55:49;;;;;;;1.80;1.33;;;;;;;5.89;100.00;101156.28;4905518;29;20047;-76
2023/11/16 10:58:20;;;;;;;3.10;1.67;;;;;;;5.97;100.00;101161.31;4904820;29;20513;-76
2023/11/16 11:00:52;;;;;;;2.63;1.38;;;;;;;6.01;100.00;101165.94;4900900;29;20115;-77
2023/11/16 11:03:19;;;;;;;1.85;1.33;;;;;;;5.95;100.00;101160.72;4904119;29;20071;-76
2023/11/16 11:05:52;;;;;;;4.32;1.50;;;;;;;5.90;100.00;101152.59;4890620;29;20044;-75
2023/11/16 11:08:19;;;;;;;4.20;1.58;;;;;;;5.95;100.00;101163.38;4907929;29;20047;-78
2023/11/16 11:10:46;;;;;;;1.80;1.23;;;;;;;5.96;100.00;101157.00;4893346;29;20096;-78
2023/11/16 11:13:16;;;;;;;2.67;1.60;;;;;;;6.09;100.00;101159.47;4910604;29;20090;-77
2023/11/16 11:15:46;;;;;;;1.85;1.33;;;;;;;6.16;100.00;101156.69;4901479;29;20044;-77
2023/11/16 11:18:26;;;;;;;2.72;1.50;;;;;;;6.22;100.00;101158.44;4883678;29;20503;-77
2023/11/16 11:20:53;;;;;;;3.10;1.85;;;;;;;6.36;100.00;101159.03;4888042;29;20734;-77
2023/11/16 11:23:19;;;;;;;3.40;1.30;;;;;;;6.39;100.00;101145.28;4902977;29;20048;-77
2023/11/16 11:25:46;;;;;;;2.78;1.17;;;;;;;6.42;100.00;101150.91;4917506;29;20064;-75
2023/11/16 11:28:14;;;;;;;2.92;1.33;;;;;;;6.51;100.00;101151.41;4911913;29;20510;-77
2023/11/16 11:30:59;;;;;;;1.73;1.35;;;;;;;6.47;100.00;101163.53;4867000;29;20455;-78
2023/11/16 11:33:39;;;;;;;4.55;1.55;;;;;;;6.46;100.00;101167.25;4905347;29;20044;-77
2023/11/16 11:36:16;;;;;;;2.13;1.65;;;;;;;6.40;100.00;101174.28;4905270;29;20064;-76